createdAt,value
2024-04-26T00:00:17.656Z,100.00
2024-04-26T00:02:46.281Z,100.00
2024-04-26T00:05:12.968Z,100.00
2024-04-26T00:07:39.510Z,100.00
2024-04-26T00:10:06.718Z,100.00
2024-04-26T00:12:33.799Z,100.00
2024-04-26T00:15:00.542Z,100.00
2024-04-26T00:17:27.512Z,100.00
2024-04-26T00:19:54.217Z,100.00
2024-04-26T00:22:20.727Z,100.00
2024-04-26T00:24:49.884Z,100.00
2024-04-26T00:27:16.532Z,100.00
2024-04-26T00:29:46.269Z,100.00
2024-04-26T00:32:12.950Z,100.00
2024-04-26T00:34:43.233Z,100.00
2024-04-26T00:37:09.856Z,100.00
2024-04-26T00:39:36.603Z,100.00
2024-04-26T00:42:04.552Z,100.00
2024-04-26T00:44:31.200Z,100.00
2024-04-26T00:46:58.824Z,100.00
2024-04-26T00:49:26.130Z,100.00
2024-04-26T00:51:53.099Z,100.00
2024-04-26T00:54:24.868Z,100.00
2024-04-26T00:56:53.293Z,100.00
2024-04-26T00:59:20.082Z,100.00
2024-04-26T01:01:47.078Z,100.00
2024-04-26T01:04:13.774Z,100.00
2024-04-26T01:06:40.420Z,100.00
2024-04-26T01:09:07.707Z,100.00
2024-04-26T01:11:34.581Z,100.00
2024-04-26T01:14:01.553Z,100.00
2024-04-26T01:16:28.128Z,100.00
2024-04-26T01:18:54.918Z,100.00
2024-04-26T01:21:22.486Z,100.00
2024-04-26T01:23:49.737Z,100.00
2024-04-26T01:26:16.416Z,100.00
2024-04-26T01:28:43.057Z,100.00
2024-04-26T01:31:09.666Z,100.00
2024-04-26T01:33:36.561Z,100.00
2024-04-26T01:36:03.783Z,100.00
2024-04-26T01:38:30.547Z,100.00
2024-04-26T01:40:57.169Z,100.00
2024-04-26T01:43:23.746Z,100.00
2024-04-26T01:45:50.340Z,100.00
2024-04-26T01:48:17.025Z,100.00
2024-04-26T01:50:43.837Z,100.00
2024-04-26T01:53:10.435Z,100.00
2024-04-26T01:55:37.178Z,100.00
2024-04-26T01:58:03.875Z,100.00
2024-04-26T02:00:30.513Z,100.00
2024-04-26T02:02:57.796Z,100.00
2024-04-26T02:05:24.869Z,100.00
2024-04-26T02:07:51.657Z,100.00
2024-04-26T02:10:18.781Z,100.00
2024-04-26T02:12:45.898Z,100.00
2024-04-26T02:15:12.538Z,100.00
2024-04-26T02:17:39.351Z,100.00
2024-04-26T02:20:07.475Z,100.00
2024-04-26T02:22:34.547Z,100.00
2024-04-26T02:25:01.173Z,100.00
2024-04-26T02:27:27.777Z,100.00
2024-04-26T02:29:54.368Z,100.00
2024-04-26T02:32:21.048Z,100.00
2024-04-26T02:34:47.675Z,100.00
2024-04-26T02:37:14.259Z,100.00
2024-04-26T02:39:40.911Z,100.00
2024-04-26T02:42:07.653Z,100.00
2024-04-26T02:44:34.404Z,100.00
2024-04-26T02:47:01.228Z,100.00
2024-04-26T02:49:27.875Z,100.00
2024-04-26T02:51:55.949Z,100.00
2024-04-26T02:54:22.722Z,100.00
2024-04-26T02:56:49.426Z,100.00
2024-04-26T02:59:16.046Z,100.00
2024-04-26T03:01:49.060Z,100.00
2024-04-26T03:04:15.880Z,100.00
2024-04-26T03:06:43.798Z,100.00
2024-04-26T03:09:11.070Z,100.00
2024-04-26T03:11:37.894Z,100.00
2024-04-26T03:14:04.664Z,100.00
2024-04-26T03:16:31.321Z,100.00
2024-04-26T03:18:58.283Z,100.00
2024-04-26T03:21:24.957Z,100.00
2024-04-26T03:23:51.728Z,100.00
2024-04-26T03:26:20.625Z,100.00
2024-04-26T03:28:48.145Z,100.00
2024-04-26T03:31:23.751Z,100.00
2024-04-26T03:33:50.725Z,100.00
2024-04-26T03:36:17.790Z,100.00
2024-04-26T03:38:44.618Z,100.00
2024-04-26T03:41:11.269Z,100.00
2024-04-26T03:43:37.847Z,100.00
2024-04-26T03:46:04.604Z,100.00
2024-04-26T03:48:31.372Z,100.00
2024-04-26T03:50:58.280Z,100.00
2024-04-26T03:53:24.986Z,100.00
2024-04-26T03:55:52.309Z,100.00
2024-04-26T03:58:19.695Z,100.00
2024-04-26T04:00:46.493Z,100.00
2024-04-26T04:03:13.419Z,100.00
2024-04-26T04:05:40.308Z,100.00
2024-04-26T04:08:08.838Z,100.00
2024-04-26T04:10:35.478Z,100.00
2024-04-26T04:13:02.188Z,100.00
2024-04-26T04:15:28.827Z,100.00
2024-04-26T04:17:55.616Z,100.00
2024-04-26T04:20:22.262Z,100.00
2024-04-26T04:22:48.839Z,100.00
2024-04-26T04:25:15.484Z,100.00
2024-04-26T04:27:42.109Z,100.00
2024-04-26T04:30:08.952Z,100.00
2024-04-26T04:32:35.767Z,100.00
2024-04-26T04:35:02.439Z,100.00
2024-04-26T04:37:29.046Z,100.00
2024-04-26T04:39:55.665Z,100.00
2024-04-26T04:42:22.206Z,100.00
2024-04-26T04:44:48.954Z,100.00
2024-04-26T04:47:15.618Z,100.00
2024-04-26T04:49:42.240Z,100.00
2024-04-26T04:52:09.004Z,100.00
2024-04-26T04:54:35.652Z,100.00
2024-04-26T04:57:02.814Z,100.00
2024-04-26T04:59:32.015Z,100.00
2024-04-26T05:01:58.680Z,100.00
2024-04-26T05:04:25.427Z,100.00
2024-04-26T05:06:52.093Z,100.00
2024-04-26T05:09:18.772Z,100.00
2024-04-26T05:11:45.447Z,100.00
2024-04-26T05:14:12.116Z,100.00
2024-04-26T05:16:38.936Z,100.00
2024-04-26T05:19:07.202Z,100.00
2024-04-26T05:21:33.949Z,100.00
2024-04-26T05:24:00.616Z,100.00
2024-04-26T05:26:27.247Z,100.00
2024-04-26T05:28:54.259Z,100.00
2024-04-26T05:31:20.834Z,100.00
2024-04-26T05:33:47.686Z,100.00
2024-04-26T05:36:14.522Z,100.00
2024-04-26T05:38:41.177Z,100.00
2024-04-26T05:41:11.888Z,100.00
2024-04-26T05:43:38.469Z,100.00
2024-04-26T05:46:10.426Z,100.00
2024-04-26T05:48:37.177Z,100.00
2024-04-26T05:51:04.107Z,100.00
2024-04-26T05:53:30.873Z,100.00
2024-04-26T05:56:01.416Z,100.00
2024-04-26T05:58:28.172Z,100.00
2024-04-26T06:00:54.884Z,100.00
2024-04-26T06:03:21.657Z,100.00
2024-04-26T06:05:48.420Z,100.00
2024-04-26T06:08:15.106Z,100.00
2024-04-26T06:10:46.341Z,100.00
2024-04-26T06:13:22.378Z,100.00
2024-04-26T06:15:55.050Z,100.00
2024-04-26T06:18:21.806Z,100.00
2024-04-26T06:20:48.552Z,100.00
2024-04-26T06:23:15.192Z,100.00
2024-04-26T06:25:41.783Z,100.00
2024-04-26T06:28:08.381Z,100.00
2024-04-26T06:30:34.934Z,100.00
2024-04-26T06:33:02.273Z,100.00
2024-04-26T06:35:29.158Z,100.00
2024-04-26T06:37:55.809Z,100.00
2024-04-26T06:40:22.534Z,100.00
2024-04-26T06:42:49.294Z,100.00
2024-04-26T06:45:15.977Z,100.00
2024-04-26T06:47:42.783Z,100.00
2024-04-26T06:50:09.587Z,100.00
2024-04-26T06:52:36.698Z,100.00
2024-04-26T06:55:03.612Z,100.00
2024-04-26T06:57:30.486Z,100.00
2024-04-26T06:59:57.092Z,100.00
2024-04-26T07:02:23.930Z,100.00
2024-04-26T07:04:50.865Z,100.00
2024-04-26T07:07:17.919Z,100.00
2024-04-26T07:09:44.695Z,100.00
2024-04-26T07:12:13.349Z,100.00
2024-04-26T07:14:40.142Z,100.00
2024-04-26T07:17:06.929Z,100.00
2024-04-26T07:19:38.123Z,100.00
2024-04-26T07:22:04.795Z,100.00
2024-04-26T07:24:31.940Z,100.00
2024-04-26T07:26:58.604Z,100.00
2024-04-26T07:29:29.291Z,100.00
2024-04-26T07:31:56.588Z,100.00
2024-04-26T07:34:23.616Z,100.00
2024-04-26T07:36:50.322Z,100.00
2024-04-26T07:39:17.219Z,100.00
2024-04-26T07:41:44.079Z,100.00
2024-04-26T07:44:10.828Z,100.00
2024-04-26T07:46:37.478Z,100.00
2024-04-26T07:49:06.391Z,100.00
2024-04-26T07:51:35.564Z,100.00
2024-04-26T07:54:02.401Z,100.00
2024-04-26T07:56:29.180Z,100.00
2024-04-26T07:58:55.837Z,100.00
2024-04-26T08:01:22.728Z,100.00
2024-04-26T08:03:49.863Z,100.00
2024-04-26T08:06:17.426Z,100.00
2024-04-26T08:08:44.233Z,100.00
2024-04-26T08:11:11.595Z,100.00
2024-04-26T08:13:38.866Z,100.00
2024-04-26T08:16:05.885Z,100.00
2024-04-26T08:18:32.531Z,100.00
2024-04-26T08:20:59.125Z,100.00
2024-04-26T08:23:25.770Z,100.00
2024-04-26T08:25:52.381Z,100.00
2024-04-26T08:28:18.929Z,100.00
2024-04-26T08:30:46.387Z,100.00
2024-04-26T08:33:15.292Z,100.00
2024-04-26T08:35:44.082Z,100.00
2024-04-26T08:38:11.317Z,100.00
2024-04-26T08:40:44.675Z,100.00
2024-04-26T08:43:11.358Z,100.00
2024-04-26T08:45:40.511Z,100.00
2024-04-26T08:48:09.125Z,100.00
2024-04-26T08:50:37.088Z,100.00
2024-04-26T08:53:09.010Z,100.00
2024-04-26T08:55:36.533Z,100.00
2024-04-26T08:58:09.851Z,100.00
2024-04-26T09:00:37.616Z,100.00
2024-04-26T09:03:04.940Z,100.00
2024-04-26T09:05:33.580Z,100.00
2024-04-26T09:08:00.963Z,100.00
2024-04-26T09:10:29.120Z,100.00
2024-04-26T09:13:03.028Z,100.00
2024-04-26T09:15:32.131Z,100.00
2024-04-26T09:17:59.538Z,95.54
2024-04-26T09:20:27.002Z,100.00
2024-04-26T09:22:53.757Z,100.00
2024-04-26T09:25:20.460Z,100.00
2024-04-26T09:27:47.050Z,98.76
2024-04-26T09:30:13.948Z,91.89
2024-04-26T09:32:47.693Z,94.61
2024-04-26T09:35:22.907Z,97.97
2024-04-26T09:37:54.087Z,98.63
2024-04-26T09:40:23.142Z,95.74
2024-04-26T09:42:54.796Z,93.56
2024-04-26T09:45:22.946Z,91.86
2024-04-26T09:47:51.702Z,87.19
2024-04-26T09:50:20.415Z,86.67
2024-04-26T09:52:50.976Z,94.91
2024-04-26T09:55:21.940Z,97.24
2024-04-26T09:57:50.237Z,96.37
2024-04-26T10:00:17.795Z,97.12
2024-04-26T10:02:48.216Z,100.00
2024-04-26T10:05:19.755Z,100.00
2024-04-26T10:08:06.912Z,100.00
2024-04-26T10:10:37.472Z,90.21
2024-04-26T10:13:17.859Z,87.50
2024-04-26T10:15:54.374Z,95.80
2024-04-26T10:18:32.873Z,93.97
2024-04-26T10:21:00.768Z,90.94
2024-04-26T10:23:27.477Z,88.82
2024-04-26T10:25:54.095Z,89.43
2024-04-26T10:28:20.747Z,89.61
2024-04-26T10:30:49.407Z,87.54
2024-04-26T10:33:17.497Z,89.17
2024-04-26T10:35:44.528Z,85.90
2024-04-26T10:38:12.497Z,86.78
2024-04-26T10:40:49.903Z,86.36
2024-04-26T10:43:24.806Z,88.43
2024-04-26T10:45:54.791Z,85.29
2024-04-26T10:48:22.759Z,83.48
2024-04-26T10:50:49.522Z,85.67
2024-04-26T10:53:16.192Z,89.59
2024-04-26T10:55:42.795Z,88.62
2024-04-26T10:58:12.748Z,89.15
2024-04-26T11:00:40.381Z,86.67
2024-04-26T11:03:13.913Z,82.65
2024-04-26T11:05:45.071Z,89.71
2024-04-26T11:08:12.309Z,88.03
2024-04-26T11:10:40.572Z,84.69
2024-04-26T11:13:07.216Z,87.01
2024-04-26T11:15:33.789Z,86.15
2024-04-26T11:18:00.572Z,84.66
2024-04-26T11:20:27.513Z,85.28
2024-04-26T11:22:54.175Z,79.80
2024-04-26T11:25:20.813Z,78.26
2024-04-26T11:27:47.921Z,64.85
2024-04-26T11:30:14.744Z,69.54
2024-04-26T11:32:41.614Z,73.89
2024-04-26T11:35:08.818Z,79.81
2024-04-26T11:37:36.539Z,82.27
2024-04-26T11:40:05.007Z,84.68
2024-04-26T11:42:31.709Z,86.41
2024-04-26T11:45:00.546Z,85.57
2024-04-26T11:47:27.566Z,86.22
2024-04-26T11:49:54.376Z,86.94
2024-04-26T11:52:21.141Z,85.87
2024-04-26T11:54:47.755Z,81.55
2024-04-26T11:57:14.507Z,81.33
2024-04-26T11:59:41.201Z,81.37
2024-04-26T12:02:09.955Z,82.07
2024-04-26T12:04:37.404Z,78.70
2024-04-26T12:07:04.215Z,79.86
2024-04-26T12:09:30.974Z,82.04
2024-04-26T12:11:57.695Z,84.49
2024-04-26T12:14:24.423Z,78.72
2024-04-26T12:16:51.158Z,80.10
2024-04-26T12:19:18.057Z,76.04
2024-04-26T12:21:44.678Z,76.80
2024-04-26T12:24:11.638Z,73.12
2024-04-26T12:26:38.394Z,70.91
2024-04-26T12:29:05.041Z,76.35
2024-04-26T12:31:32.107Z,77.80
2024-04-26T12:33:59.247Z,79.88
2024-04-26T12:36:27.024Z,83.05
2024-04-26T12:38:53.750Z,83.01
2024-04-26T12:41:20.582Z,81.67
2024-04-26T12:43:47.236Z,79.20
2024-04-26T12:46:15.409Z,79.38
2024-04-26T12:48:42.393Z,78.76
2024-04-26T12:51:09.332Z,81.66
2024-04-26T12:53:36.110Z,83.21
2024-04-26T12:56:02.967Z,81.55
2024-04-26T12:58:29.578Z,82.23
2024-04-26T13:00:56.192Z,79.53
2024-04-26T13:03:23.262Z,81.09
2024-04-26T13:05:50.115Z,80.00
2024-04-26T13:08:17.058Z,84.65
2024-04-26T13:10:43.950Z,83.61
2024-04-26T13:13:10.684Z,84.13
2024-04-26T13:15:37.407Z,86.01
2024-04-26T13:18:11.207Z,88.25
2024-04-26T13:20:39.801Z,86.14
2024-04-26T13:23:07.185Z,84.68
2024-04-26T13:25:33.842Z,86.55
2024-04-26T13:28:00.470Z,83.23
2024-04-26T13:30:28.824Z,83.35
2024-04-26T13:32:56.037Z,84.14
2024-04-26T13:35:22.769Z,82.90
2024-04-26T13:37:53.260Z,79.08
2024-04-26T13:40:19.999Z,82.66
2024-04-26T13:42:46.660Z,83.54
2024-04-26T13:45:16.864Z,81.73
2024-04-26T13:47:44.022Z,80.19
2024-04-26T13:50:12.176Z,81.29
2024-04-26T13:52:38.907Z,79.81
2024-04-26T13:55:05.958Z,81.72
2024-04-26T13:57:33.671Z,81.51
2024-04-26T14:00:00.706Z,82.73
2024-04-26T14:02:28.645Z,82.53
2024-04-26T14:04:56.252Z,83.02
2024-04-26T14:07:22.930Z,84.30
2024-04-26T14:09:49.530Z,83.67
2024-04-26T14:12:16.317Z,85.01
2024-04-26T14:14:43.034Z,85.46
2024-04-26T14:17:09.683Z,81.25
2024-04-26T14:19:37.054Z,83.65
2024-04-26T14:22:04.658Z,82.90
2024-04-26T14:24:31.484Z,84.40
2024-04-26T14:26:58.191Z,82.72
2024-04-26T14:29:37.413Z,86.06
2024-04-26T14:32:08.768Z,84.76
2024-04-26T14:34:36.680Z,85.67
2024-04-26T14:37:03.368Z,86.88
2024-04-26T14:39:33.618Z,88.43
2024-04-26T14:42:00.543Z,87.21
2024-04-26T14:44:27.293Z,87.71
2024-04-26T14:46:54.056Z,86.98
2024-04-26T14:49:20.750Z,85.92
2024-04-26T14:51:47.302Z,86.09
2024-04-26T14:54:13.955Z,88.31
2024-04-26T14:56:41.177Z,88.21
2024-04-26T14:59:07.761Z,86.74
2024-04-26T15:01:34.544Z,87.54
2024-04-26T15:04:01.248Z,87.31
2024-04-26T15:06:28.119Z,87.79
2024-04-26T15:08:55.349Z,87.80
2024-04-26T15:11:21.966Z,86.48
2024-04-26T15:13:48.671Z,88.11
2024-04-26T15:16:15.379Z,89.56
2024-04-26T15:18:42.609Z,90.15
2024-04-26T15:21:10.885Z,89.13
2024-04-26T15:23:38.139Z,89.45
2024-04-26T15:26:04.826Z,90.89
2024-04-26T15:28:31.455Z,88.83
2024-04-26T15:30:58.117Z,83.62
2024-04-26T15:33:24.780Z,84.75
2024-04-26T15:35:51.478Z,82.35
2024-04-26T15:38:19.097Z,82.97
2024-04-26T15:40:46.298Z,82.58
2024-04-26T15:43:13.406Z,84.19
2024-04-26T15:45:40.181Z,84.08
2024-04-26T15:48:07.033Z,81.57
2024-04-26T15:50:33.638Z,82.27
2024-04-26T15:53:02.613Z,84.23
2024-04-26T15:55:29.397Z,83.34
2024-04-26T15:57:56.981Z,82.16
2024-04-26T16:00:23.633Z,80.74
2024-04-26T16:02:50.275Z,81.69
2024-04-26T16:05:17.043Z,82.99
2024-04-26T16:07:43.674Z,84.14
2024-04-26T16:10:10.433Z,84.58
2024-04-26T16:12:37.955Z,85.49
2024-04-26T16:15:06.158Z,86.96
2024-04-26T16:17:32.946Z,88.22
2024-04-26T16:19:59.661Z,90.67
2024-04-26T16:22:28.104Z,88.50
2024-04-26T16:24:54.837Z,88.45
2024-04-26T16:27:21.446Z,87.61
2024-04-26T16:29:48.042Z,85.81
2024-04-26T16:32:14.612Z,87.01
2024-04-26T16:34:41.221Z,87.79
2024-04-26T16:37:07.983Z,88.28
2024-04-26T16:39:34.553Z,89.53
2024-04-26T16:42:01.228Z,90.44
2024-04-26T16:44:28.718Z,88.80
2024-04-26T16:46:55.434Z,88.39
2024-04-26T16:49:22.090Z,89.48
2024-04-26T16:51:48.939Z,88.32
2024-04-26T16:54:15.765Z,90.13
2024-04-26T16:56:42.505Z,91.32
2024-04-26T16:59:09.508Z,91.90
2024-04-26T17:01:42.660Z,86.97
2024-04-26T17:04:13.933Z,88.35
2024-04-26T17:06:44.246Z,89.88
2024-04-26T17:09:11.614Z,90.68
2024-04-26T17:11:43.571Z,89.27
2024-04-26T17:14:10.305Z,91.16
2024-04-26T17:16:37.918Z,91.31
2024-04-26T17:19:04.645Z,90.58
2024-04-26T17:21:31.465Z,92.75
2024-04-26T17:23:58.694Z,94.63
2024-04-26T17:26:25.324Z,95.60
2024-04-26T17:28:51.920Z,96.09
2024-04-26T17:31:18.594Z,95.27
2024-04-26T17:33:46.499Z,96.40
2024-04-26T17:36:14.216Z,96.64
2024-04-26T17:38:45.066Z,98.83
2024-04-26T17:41:18.425Z,100.00
2024-04-26T17:43:45.082Z,100.00
2024-04-26T17:46:11.804Z,100.00
2024-04-26T17:48:40.488Z,100.00
2024-04-26T17:51:08.194Z,100.00
2024-04-26T17:53:34.998Z,100.00
2024-04-26T17:56:01.682Z,100.00
2024-04-26T17:58:30.481Z,100.00
2024-04-26T18:00:57.211Z,100.00
2024-04-26T18:03:23.854Z,100.00
2024-04-26T18:05:50.445Z,100.00
2024-04-26T18:08:20.327Z,100.00
2024-04-26T18:10:48.335Z,100.00
2024-04-26T18:13:15.022Z,100.00
2024-04-26T18:15:41.753Z,100.00
2024-04-26T18:18:08.658Z,100.00
2024-04-26T18:20:35.572Z,100.00
2024-04-26T18:23:02.231Z,100.00
2024-04-26T18:25:28.914Z,100.00
2024-04-26T18:27:55.641Z,100.00
2024-04-26T18:30:22.357Z,100.00
2024-04-26T18:32:49.051Z,100.00
2024-04-26T18:35:15.729Z,100.00
2024-04-26T18:37:42.342Z,100.00
2024-04-26T18:40:09.796Z,100.00
2024-04-26T18:42:36.522Z,100.00
2024-04-26T18:45:03.249Z,100.00
2024-04-26T18:47:29.949Z,100.00
2024-04-26T18:49:56.709Z,100.00
2024-04-26T18:52:23.462Z,100.00
2024-04-26T18:54:50.220Z,100.00
2024-04-26T18:57:16.834Z,100.00
2024-04-26T18:59:44.458Z,100.00
2024-04-26T19:02:11.160Z,100.00
2024-04-26T19:04:39.139Z,100.00
2024-04-26T19:07:07.974Z,100.00
2024-04-26T19:09:35.126Z,100.00
2024-04-26T19:12:02.569Z,100.00
2024-04-26T19:14:29.647Z,100.00
2024-04-26T19:16:56.477Z,100.00
2024-04-26T19:19:23.316Z,100.00
2024-04-26T19:21:50.512Z,100.00
2024-04-26T19:24:18.267Z,100.00
2024-04-26T19:26:45.310Z,100.00
2024-04-26T19:29:12.001Z,100.00
2024-04-26T19:31:38.706Z,100.00
2024-04-26T19:34:05.333Z,100.00
2024-04-26T19:36:31.972Z,100.00
2024-04-26T19:38:58.563Z,100.00
2024-04-26T19:41:27.467Z,100.00
2024-04-26T19:43:56.542Z,100.00
2024-04-26T19:46:23.682Z,100.00
2024-04-26T19:48:51.934Z,100.00
2024-04-26T19:51:18.636Z,100.00
2024-04-26T19:54:04.908Z,100.00
2024-04-26T19:56:31.491Z,100.00
2024-04-26T19:58:58.265Z,100.00
2024-04-26T20:01:28.718Z,100.00
2024-04-26T20:03:56.195Z,100.00
2024-04-26T20:06:22.938Z,100.00
2024-04-26T20:08:49.594Z,100.00
2024-04-26T20:11:18.501Z,100.00
2024-04-26T20:13:46.738Z,100.00
2024-04-26T20:16:20.161Z,100.00
2024-04-26T20:18:50.232Z,100.00
2024-04-26T20:21:19.032Z,100.00
2024-04-26T20:23:45.915Z,100.00
2024-04-26T20:26:15.849Z,100.00
2024-04-26T20:28:46.204Z,100.00
2024-04-26T20:31:13.053Z,100.00
2024-04-26T20:33:40.342Z,100.00
2024-04-26T20:36:08.417Z,100.00
2024-04-26T20:38:35.157Z,100.00
2024-04-26T20:41:02.012Z,100.00
2024-04-26T20:43:31.776Z,100.00
2024-04-26T20:45:59.940Z,100.00
2024-04-26T20:48:26.750Z,100.00
2024-04-26T20:50:53.521Z,100.00
2024-04-26T20:53:20.731Z,100.00
2024-04-26T20:55:47.432Z,100.00
2024-04-26T20:58:14.447Z,100.00
2024-04-26T21:00:41.096Z,100.00
2024-04-26T21:03:07.783Z,100.00
2024-04-26T21:05:34.504Z,100.00
2024-04-26T21:08:01.363Z,100.00
2024-04-26T21:10:28.035Z,100.00
2024-04-26T21:12:54.695Z,100.00
2024-04-26T21:15:24.816Z,100.00
2024-04-26T21:17:54.682Z,100.00
2024-04-26T21:20:21.597Z,100.00
2024-04-26T21:22:48.398Z,100.00
2024-04-26T21:25:17.198Z,100.00
2024-04-26T21:27:43.786Z,100.00
2024-04-26T21:30:11.016Z,100.00
2024-04-26T21:32:44.216Z,100.00
2024-04-26T21:35:11.073Z,100.00
2024-04-26T21:37:37.955Z,100.00
2024-04-26T21:40:05.164Z,100.00
2024-04-26T21:42:31.763Z,100.00
2024-04-26T21:44:58.414Z,100.00
2024-04-26T21:47:25.195Z,100.00
2024-04-26T21:49:51.942Z,100.00
2024-04-26T21:52:18.722Z,100.00
2024-04-26T21:54:45.364Z,100.00
2024-04-26T21:57:12.021Z,100.00
2024-04-26T21:59:38.665Z,100.00
2024-04-26T22:02:05.582Z,100.00
2024-04-26T22:04:32.332Z,100.00
2024-04-26T22:06:59.054Z,100.00
2024-04-26T22:09:25.956Z,100.00
2024-04-26T22:11:52.894Z,100.00
2024-04-26T22:14:19.571Z,100.00
2024-04-26T22:16:46.347Z,100.00
2024-04-26T22:19:13.004Z,100.00
2024-04-26T22:21:39.670Z,100.00
2024-04-26T22:24:06.739Z,100.00
2024-04-26T22:26:33.445Z,100.00
2024-04-26T22:29:00.327Z,100.00
2024-04-26T22:31:29.732Z,100.00
2024-04-26T22:33:59.720Z,100.00
2024-04-26T22:36:26.448Z,100.00
2024-04-26T22:38:53.099Z,100.00
2024-04-26T22:41:21.631Z,100.00
2024-04-26T22:43:48.550Z,100.00
2024-04-26T22:46:15.116Z,100.00
2024-04-26T22:48:41.857Z,100.00
2024-04-26T22:51:08.653Z,100.00
2024-04-26T22:53:35.263Z,100.00
2024-04-26T22:56:01.961Z,100.00
2024-04-26T22:58:28.722Z,100.00
2024-04-26T23:00:55.505Z,100.00
2024-04-26T23:03:24.254Z,100.00
2024-04-26T23:05:53.190Z,100.00
2024-04-26T23:08:19.769Z,100.00
2024-04-26T23:10:46.470Z,100.00
2024-04-26T23:13:13.224Z,100.00
2024-04-26T23:15:40.131Z,100.00
2024-04-26T23:18:07.523Z,100.00
2024-04-26T23:20:34.192Z,100.00
2024-04-26T23:23:01.034Z,100.00
2024-04-26T23:25:27.723Z,100.00
2024-04-26T23:27:54.354Z,100.00
2024-04-26T23:30:20.975Z,100.00
2024-04-26T23:32:47.584Z,100.00
2024-04-26T23:35:14.280Z,100.00
2024-04-26T23:37:40.896Z,100.00
2024-04-26T23:40:08.436Z,100.00
2024-04-26T23:42:35.052Z,100.00
2024-04-26T23:45:02.451Z,100.00
2024-04-26T23:47:29.342Z,100.00
2024-04-26T23:49:56.003Z,100.00
2024-04-26T23:52:22.628Z,100.00
2024-04-26T23:54:49.171Z,100.00
2024-04-26T23:57:15.848Z,100.00
2024-04-26T23:59:42.512Z,100.00
